Aviation Digital Data Service (ADDS)

Output produced by METARs form (0742 UTC 12 February 2016)
found at http://aviationweather.gov/adds/metars/
 
KDFW 120530Z 1206/1312 02008KT P6SM FEW250